sensor_id;sensor_type;location;lat;lon;timestamp;P1;durP1;ratioP1;P2;durP2;ratioP2
8048;SDS011;20935;42.660;23.342;2024-01-30T00:00:39;7.40;;;6.63;;
8048;SDS011;20935;42.660;23.342;2024-01-30T00:03:26;8.23;;;7.20;;
8048;SDS011;20935;42.660;23.342;2024-01-30T00:06:13;8.30;;;7.20;;
8048;SDS011;20935;42.660;23.342;2024-01-30T00:09:00;8.43;;;7.50;;
8048;SDS011;20935;42.660;23.342;2024-01-30T00:11:48;8.37;;;7.03;;
8048;SDS011;20935;42.660;23.342;2024-01-30T00:14:35;9.10;;;5.70;;
8048;SDS011;20935;42.660;23.342;2024-01-30T00:17:22;6.63;;;5.87;;
8048;SDS011;20935;42.660;23.342;2024-01-30T00:20:10;9.17;;;6.63;;
8048;SDS011;20935;42.660;23.342;2024-01-30T00:22:57;6.83;;;6.17;;
8048;SDS011;20935;42.660;23.342;2024-01-30T00:25:44;6.60;;;5.80;;
8048;SDS011;20935;42.660;23.342;2024-01-30T00:28:32;7.50;;;5.83;;
8048;SDS011;20935;42.660;23.342;2024-01-30T00:31:19;8.57;;;6.27;;
8048;SDS011;20935;42.660;23.342;2024-01-30T00:34:09;6.53;;;5.47;;
8048;SDS011;20935;42.660;23.342;2024-01-30T00:36:56;8.40;;;6.40;;
8048;SDS011;20935;42.660;23.342;2024-01-30T00:39:45;7.43;;;6.70;;
8048;SDS011;20935;42.660;23.342;2024-01-30T00:42:32;8.83;;;7.07;;
8048;SDS011;20935;42.660;23.342;2024-01-30T00:45:21;8.13;;;6.93;;
8048;SDS011;20935;42.660;23.342;2024-01-30T00:48:08;9.63;;;6.57;;
8048;SDS011;20935;42.660;23.342;2024-01-30T00:50:54;9.77;;;7.30;;
8048;SDS011;20935;42.660;23.342;2024-01-30T00:53:44;8.33;;;6.47;;
8048;SDS011;20935;42.660;23.342;2024-01-30T00:56:32;8.07;;;6.17;;
8048;SDS011;20935;42.660;23.342;2024-01-30T00:59:18;9.87;;;7.13;;
8048;SDS011;20935;42.660;23.342;2024-01-30T01:02:07;8.20;;;7.03;;
8048;SDS011;20935;42.660;23.342;2024-01-30T01:04:53;8.50;;;6.00;;
8048;SDS011;20935;42.660;23.342;2024-01-30T01:07:40;7.60;;;6.13;;
8048;SDS011;20935;42.660;23.342;2024-01-30T01:10:28;9.30;;;6.83;;
8048;SDS011;20935;42.660;23.342;2024-01-30T01:13:14;7.73;;;6.80;;
8048;SDS011;20935;42.660;23.342;2024-01-30T01:16:01;9.00;;;7.47;;
8048;SDS011;20935;42.660;23.342;2024-01-30T01:18:50;6.17;;;5.27;;
8048;SDS011;20935;42.660;23.342;2024-01-30T01:21:37;7.93;;;6.63;;
8048;SDS011;20935;42.660;23.342;2024-01-30T01:24:24;8.67;;;6.93;;
8048;SDS011;20935;42.660;23.342;2024-01-30T01:27:11;7.50;;;6.07;;
8048;SDS011;20935;42.660;23.342;2024-01-30T01:29:58;7.03;;;6.10;;
8048;SDS011;20935;42.660;23.342;2024-01-30T01:32:45;6.70;;;6.07;;
8048;SDS011;20935;42.660;23.342;2024-01-30T01:35:37;6.70;;;5.40;;
8048;SDS011;20935;42.660;23.342;2024-01-30T01:38:27;6.90;;;5.10;;
8048;SDS011;20935;42.660;23.342;2024-01-30T01:41:14;7.17;;;6.03;;
8048;SDS011;20935;42.660;23.342;2024-01-30T01:44:01;5.77;;;4.87;;
8048;SDS011;20935;42.660;23.342;2024-01-30T01:46:48;7.03;;;5.80;;
8048;SDS011;20935;42.660;23.342;2024-01-30T01:49:35;6.80;;;5.67;;
8048;SDS011;20935;42.660;23.342;2024-01-30T01:52:23;8.57;;;5.93;;
8048;SDS011;20935;42.660;23.342;2024-01-30T01:55:10;7.10;;;5.97;;
8048;SDS011;20935;42.660;23.342;2024-01-30T01:57:58;5.77;;;5.10;;
8048;SDS011;20935;42.660;23.342;2024-01-30T02:00:44;7.33;;;6.43;;
8048;SDS011;20935;42.660;23.342;2024-01-30T02:03:31;5.80;;;5.30;;
8048;SDS011;20935;42.660;23.342;2024-01-30T02:06:18;6.33;;;5.73;;
8048;SDS011;20935;42.660;23.342;2024-01-30T02:09:06;6.70;;;6.00;;
8048;SDS011;20935;42.660;23.342;2024-01-30T02:11:54;6.30;;;5.60;;
8048;SDS011;20935;42.660;23.342;2024-01-30T02:14:44;6.13;;;4.97;;
8048;SDS011;20935;42.660;23.342;2024-01-30T02:17:31;7.30;;;6.57;;
8048;SDS011;20935;42.660;23.342;2024-01-30T02:20:18;6.63;;;5.80;;
8048;SDS011;20935;42.660;23.342;2024-01-30T02:23:07;7.17;;;5.73;;
8048;SDS011;20935;42.660;23.342;2024-01-30T02:25:54;7.00;;;6.17;;
8048;SDS011;20935;42.660;23.342;2024-01-30T02:28:41;6.90;;;5.67;;
8048;SDS011;20935;42.660;23.342;2024-01-30T02:31:27;7.23;;;6.13;;
8048;SDS011;20935;42.660;23.342;2024-01-30T02:34:14;5.57;;;5.03;;
8048;SDS011;20935;42.660;23.342;2024-01-30T02:37:01;6.13;;;5.17;;
8048;SDS011;20935;42.660;23.342;2024-01-30T02:39:49;6.67;;;5.83;;
8048;SDS011;20935;42.660;23.342;2024-01-30T02:42:36;6.73;;;6.03;;
8048;SDS011;20935;42.660;23.342;2024-01-30T02:45:23;7.17;;;5.93;;
8048;SDS011;20935;42.660;23.342;2024-01-30T02:48:10;6.23;;;5.63;;
8048;SDS011;20935;42.660;23.342;2024-01-30T02:50:56;6.93;;;5.97;;
8048;SDS011;20935;42.660;23.342;2024-01-30T02:53:44;6.87;;;5.50;;
8048;SDS011;20935;42.660;23.342;2024-01-30T02:56:32;6.13;;;5.23;;
8048;SDS011;20935;42.660;23.342;2024-01-30T02:59:19;9.10;;;5.70;;
8048;SDS011;20935;42.660;23.342;2024-01-30T03:02:05;6.50;;;5.20;;
8048;SDS011;20935;42.660;23.342;2024-01-30T03:04:55;6.33;;;5.83;;
8048;SDS011;20935;42.660;23.342;2024-01-30T03:07:42;7.57;;;5.77;;
8048;SDS011;20935;42.660;23.342;2024-01-30T03:10:29;6.57;;;5.43;;
8048;SDS011;20935;42.660;23.342;2024-01-30T03:13:17;6.50;;;5.67;;
8048;SDS011;20935;42.660;23.342;2024-01-30T03:16:04;6.10;;;5.07;;
8048;SDS011;20935;42.660;23.342;2024-01-30T03:18:51;6.43;;;5.83;;
8048;SDS011;20935;42.660;23.342;2024-01-30T03:21:38;6.63;;;5.73;;
8048;SDS011;20935;42.660;23.342;2024-01-30T03:24:25;5.97;;;5.33;;
8048;SDS011;20935;42.660;23.342;2024-01-30T03:27:11;6.60;;;5.33;;
8048;SDS011;20935;42.660;23.342;2024-01-30T03:30:00;6.37;;;5.77;;
8048;SDS011;20935;42.660;23.342;2024-01-30T03:32:47;6.10;;;5.50;;
8048;SDS011;20935;42.660;23.342;2024-01-30T03:35:34;5.70;;;5.20;;
8048;SDS011;20935;42.660;23.342;2024-01-30T03:38:20;6.67;;;5.43;;
8048;SDS011;20935;42.660;23.342;2024-01-30T03:41:07;7.13;;;5.43;;
8048;SDS011;20935;42.660;23.342;2024-01-30T03:43:55;7.20;;;6.50;;
8048;SDS011;20935;42.660;23.342;2024-01-30T03:46:43;6.40;;;5.63;;
8048;SDS011;20935;42.660;23.342;2024-01-30T03:49:30;5.90;;;5.20;;
8048;SDS011;20935;42.660;23.342;2024-01-30T03:52:16;4.97;;;4.43;;
8048;SDS011;20935;42.660;23.342;2024-01-30T03:55:06;5.13;;;4.63;;
8048;SDS011;20935;42.660;23.342;2024-01-30T03:57:53;6.03;;;4.80;;
8048;SDS011;20935;42.660;23.342;2024-01-30T04:00:43;5.80;;;5.30;;
8048;SDS011;20935;42.660;23.342;2024-01-30T04:03:34;5.53;;;4.83;;
8048;SDS011;20935;42.660;23.342;2024-01-30T04:06:20;6.27;;;5.57;;
8048;SDS011;20935;42.660;23.342;2024-01-30T04:09:08;10.63;;;6.87;;
8048;SDS011;20935;42.660;23.342;2024-01-30T04:11:54;7.60;;;5.10;;
8048;SDS011;20935;42.660;23.342;2024-01-30T04:14:41;8.63;;;6.70;;
8048;SDS011;20935;42.660;23.342;2024-01-30T04:17:32;6.77;;;5.77;;
8048;SDS011;20935;42.660;23.342;2024-01-30T04:20:20;8.23;;;4.83;;
8048;SDS011;20935;42.660;23.342;2024-01-30T04:23:10;7.80;;;6.07;;
8048;SDS011;20935;42.660;23.342;2024-01-30T04:25:57;7.13;;;5.50;;
8048;SDS011;20935;42.660;23.342;2024-01-30T04:28:44;5.73;;;5.20;;
8048;SDS011;20935;42.660;23.342;2024-01-30T04:31:31;6.67;;;5.37;;
8048;SDS011;20935;42.660;23.342;2024-01-30T04:34:18;6.43;;;5.03;;
8048;SDS011;20935;42.660;23.342;2024-01-30T04:37:06;6.40;;;5.10;;
8048;SDS011;20935;42.660;23.342;2024-01-30T04:39:53;5.20;;;4.70;;
8048;SDS011;20935;42.660;23.342;2024-01-30T04:42:40;5.93;;;4.97;;
8048;SDS011;20935;42.660;23.342;2024-01-30T04:45:26;6.03;;;5.07;;
8048;SDS011;20935;42.660;23.342;2024-01-30T04:48:16;6.10;;;4.77;;
8048;SDS011;20935;42.660;23.342;2024-01-30T04:51:03;5.03;;;4.63;;
8048;SDS011;20935;42.660;23.342;2024-01-30T04:53:54;7.13;;;6.00;;
8048;SDS011;20935;42.660;23.342;2024-01-30T04:56:41;6.03;;;4.93;;
8048;SDS011;20935;42.660;23.342;2024-01-30T04:59:27;6.20;;;5.27;;
8048;SDS011;20935;42.660;23.342;2024-01-30T05:02:14;7.80;;;5.63;;
8048;SDS011;20935;42.660;23.342;2024-01-30T05:05:01;8.17;;;6.27;;
8048;SDS011;20935;42.660;23.342;2024-01-30T05:07:51;6.37;;;5.57;;
8048;SDS011;20935;42.660;23.342;2024-01-30T05:10:39;4.83;;;4.27;;
8048;SDS011;20935;42.660;23.342;2024-01-30T05:13:29;5.80;;;5.03;;
8048;SDS011;20935;42.660;23.342;2024-01-30T05:16:19;4.67;;;4.27;;
8048;SDS011;20935;42.660;23.342;2024-01-30T05:19:06;6.33;;;4.83;;
8048;SDS011;20935;42.660;23.342;2024-01-30T05:21:55;8.43;;;4.80;;
8048;SDS011;20935;42.660;23.342;2024-01-30T05:24:42;6.00;;;4.60;;
8048;SDS011;20935;42.660;23.342;2024-01-30T05:27:30;5.20;;;4.70;;
8048;SDS011;20935;42.660;23.342;2024-01-30T05:30:20;5.17;;;4.43;;
8048;SDS011;20935;42.660;23.342;2024-01-30T05:33:07;5.43;;;4.93;;
8048;SDS011;20935;42.660;23.342;2024-01-30T05:35:55;6.30;;;4.40;;
8048;SDS011;20935;42.660;23.342;2024-01-30T05:38:42;5.50;;;4.80;;
8048;SDS011;20935;42.660;23.342;2024-01-30T05:41:29;5.40;;;4.27;;
8048;SDS011;20935;42.660;23.342;2024-01-30T05:44:17;8.47;;;6.60;;
8048;SDS011;20935;42.660;23.342;2024-01-30T05:47:04;7.03;;;5.90;;
8048;SDS011;20935;42.660;23.342;2024-01-30T05:49:51;8.23;;;4.37;;
8048;SDS011;20935;42.660;23.342;2024-01-30T05:52:37;6.43;;;5.00;;
8048;SDS011;20935;42.660;23.342;2024-01-30T05:55:24;5.97;;;5.30;;
8048;SDS011;20935;42.660;23.342;2024-01-30T05:58:11;9.07;;;5.27;;
8048;SDS011;20935;42.660;23.342;2024-01-30T06:00:59;8.17;;;5.73;;
8048;SDS011;20935;42.660;23.342;2024-01-30T06:03:46;5.77;;;5.17;;
8048;SDS011;20935;42.660;23.342;2024-01-30T06:06:33;6.33;;;5.30;;
8048;SDS011;20935;42.660;23.342;2024-01-30T06:09:20;6.10;;;4.50;;
8048;SDS011;20935;42.660;23.342;2024-01-30T06:12:07;7.33;;;5.30;;
8048;SDS011;20935;42.660;23.342;2024-01-30T06:14:54;10.07;;;5.87;;
8048;SDS011;20935;42.660;23.342;2024-01-30T06:17:43;6.77;;;5.97;;
8048;SDS011;20935;42.660;23.342;2024-01-30T06:20:30;20.40;;;6.40;;
8048;SDS011;20935;42.660;23.342;2024-01-30T06:23:17;10.40;;;6.67;;
8048;SDS011;20935;42.660;23.342;2024-01-30T06:26:04;7.40;;;5.97;;
8048;SDS011;20935;42.660;23.342;2024-01-30T06:28:51;8.20;;;6.83;;
8048;SDS011;20935;42.660;23.342;2024-01-30T06:31:41;11.33;;;7.57;;
8048;SDS011;20935;42.660;23.342;2024-01-30T06:34:29;9.23;;;6.63;;
8048;SDS011;20935;42.660;23.342;2024-01-30T06:37:19;19.63;;;8.63;;
8048;SDS011;20935;42.660;23.342;2024-01-30T06:40:06;8.73;;;7.47;;
8048;SDS011;20935;42.660;23.342;2024-01-30T06:42:53;18.43;;;8.13;;
8048;SDS011;20935;42.660;23.342;2024-01-30T06:45:41;10.50;;;6.30;;
8048;SDS011;20935;42.660;23.342;2024-01-30T06:48:28;10.60;;;6.97;;
8048;SDS011;20935;42.660;23.342;2024-01-30T06:51:17;10.30;;;6.03;;
8048;SDS011;20935;42.660;23.342;2024-01-30T06:54:06;8.27;;;6.20;;
8048;SDS011;20935;42.660;23.342;2024-01-30T06:56:54;11.33;;;6.70;;
8048;SDS011;20935;42.660;23.342;2024-01-30T06:59:40;9.00;;;6.87;;
8048;SDS011;20935;42.660;23.342;2024-01-30T07:02:28;10.90;;;7.57;;
8048;SDS011;20935;42.660;23.342;2024-01-30T07:05:15;7.83;;;6.43;;
8048;SDS011;20935;42.660;23.342;2024-01-30T07:08:04;6.40;;;5.70;;
8048;SDS011;20935;42.660;23.342;2024-01-30T07:10:51;11.20;;;5.43;;
8048;SDS011;20935;42.660;23.342;2024-01-30T07:13:40;8.80;;;5.30;;
8048;SDS011;20935;42.660;23.342;2024-01-30T07:16:27;5.37;;;4.83;;
8048;SDS011;20935;42.660;23.342;2024-01-30T07:19:14;5.60;;;5.10;;
8048;SDS011;20935;42.660;23.342;2024-01-30T07:22:01;6.03;;;4.93;;
8048;SDS011;20935;42.660;23.342;2024-01-30T07:24:49;7.83;;;4.43;;
8048;SDS011;20935;42.660;23.342;2024-01-30T07:27:37;5.27;;;4.77;;
8048;SDS011;20935;42.660;23.342;2024-01-30T07:30:24;5.23;;;4.63;;
8048;SDS011;20935;42.660;23.342;2024-01-30T07:33:11;5.33;;;3.90;;
8048;SDS011;20935;42.660;23.342;2024-01-30T07:35:58;8.40;;;3.93;;
8048;SDS011;20935;42.660;23.342;2024-01-30T07:38:44;3.07;;;2.83;;
8048;SDS011;20935;42.660;23.342;2024-01-30T07:41:33;3.67;;;3.20;;
8048;SDS011;20935;42.660;23.342;2024-01-30T07:44:20;3.57;;;3.27;;
8048;SDS011;20935;42.660;23.342;2024-01-30T07:47:06;3.40;;;3.10;;
8048;SDS011;20935;42.660;23.342;2024-01-30T07:49:54;3.47;;;2.60;;
8048;SDS011;20935;42.660;23.342;2024-01-30T07:52:41;3.73;;;3.10;;
8048;SDS011;20935;42.660;23.342;2024-01-30T07:55:28;4.07;;;3.67;;
8048;SDS011;20935;42.660;23.342;2024-01-30T07:58:18;3.43;;;2.77;;
8048;SDS011;20935;42.660;23.342;2024-01-30T08:01:08;3.53;;;3.10;;
8048;SDS011;20935;42.660;23.342;2024-01-30T08:03:55;4.53;;;3.57;;
8048;SDS011;20935;42.660;23.342;2024-01-30T08:06:45;5.80;;;3.47;;
8048;SDS011;20935;42.660;23.342;2024-01-30T08:09:31;3.67;;;3.27;;
8048;SDS011;20935;42.660;23.342;2024-01-30T08:12:18;3.77;;;3.37;;
8048;SDS011;20935;42.660;23.342;2024-01-30T08:15:07;3.20;;;2.90;;
8048;SDS011;20935;42.660;23.342;2024-01-30T08:17:54;7.27;;;3.23;;
8048;SDS011;20935;42.660;23.342;2024-01-30T08:20:43;3.63;;;3.13;;
8048;SDS011;20935;42.660;23.342;2024-01-30T08:23:30;3.53;;;2.80;;
8048;SDS011;20935;42.660;23.342;2024-01-30T08:26:17;4.43;;;4.00;;
8048;SDS011;20935;42.660;23.342;2024-01-30T08:29:04;4.20;;;3.30;;
8048;SDS011;20935;42.660;23.342;2024-01-30T08:31:52;5.43;;;3.40;;
8048;SDS011;20935;42.660;23.342;2024-01-30T08:34:41;3.77;;;3.23;;
8048;SDS011;20935;42.660;23.342;2024-01-30T08:37:30;4.23;;;3.83;;
8048;SDS011;20935;42.660;23.342;2024-01-30T08:40:17;3.77;;;3.33;;
8048;SDS011;20935;42.660;23.342;2024-01-30T08:43:07;4.40;;;3.20;;
8048;SDS011;20935;42.660;23.342;2024-01-30T08:45:56;4.67;;;3.57;;
8048;SDS011;20935;42.660;23.342;2024-01-30T08:48:49;4.07;;;3.33;;
8048;SDS011;20935;42.660;23.342;2024-01-30T08:51:36;6.20;;;3.80;;
8048;SDS011;20935;42.660;23.342;2024-01-30T08:54:23;6.13;;;4.17;;
8048;SDS011;20935;42.660;23.342;2024-01-30T08:57:10;5.27;;;3.77;;
8048;SDS011;20935;42.660;23.342;2024-01-30T08:59:57;6.87;;;4.60;;
8048;SDS011;20935;42.660;23.342;2024-01-30T09:02:44;5.40;;;4.00;;
8048;SDS011;20935;42.660;23.342;2024-01-30T09:05:32;6.50;;;4.33;;
8048;SDS011;20935;42.660;23.342;2024-01-30T09:08:19;10.20;;;5.37;;
8048;SDS011;20935;42.660;23.342;2024-01-30T09:11:08;9.53;;;4.87;;
8048;SDS011;20935;42.660;23.342;2024-01-30T09:13:58;5.80;;;4.70;;
8048;SDS011;20935;42.660;23.342;2024-01-30T09:16:45;6.83;;;4.50;;
8048;SDS011;20935;42.660;23.342;2024-01-30T09:19:34;6.03;;;4.33;;
8048;SDS011;20935;42.660;23.342;2024-01-30T09:22:22;5.63;;;5.03;;
8048;SDS011;20935;42.660;23.342;2024-01-30T09:25:09;8.67;;;4.60;;
8048;SDS011;20935;42.660;23.342;2024-01-30T09:27:56;12.90;;;5.40;;
8048;SDS011;20935;42.660;23.342;2024-01-30T09:30:46;7.60;;;4.43;;
8048;SDS011;20935;42.660;23.342;2024-01-30T09:33:33;6.47;;;4.53;;
8048;SDS011;20935;42.660;23.342;2024-01-30T09:36:21;5.37;;;3.83;;
8048;SDS011;20935;42.660;23.342;2024-01-30T09:39:10;6.00;;;4.57;;
8048;SDS011;20935;42.660;23.342;2024-01-30T09:42:00;6.70;;;4.93;;
8048;SDS011;20935;42.660;23.342;2024-01-30T09:44:49;5.13;;;4.07;;
8048;SDS011;20935;42.660;23.342;2024-01-30T09:47:39;5.60;;;4.17;;
8048;SDS011;20935;42.660;23.342;2024-01-30T09:50:29;4.43;;;3.90;;
8048;SDS011;20935;42.660;23.342;2024-01-30T09:53:16;6.00;;;4.50;;
8048;SDS011;20935;42.660;23.342;2024-01-30T09:56:07;5.07;;;4.50;;
8048;SDS011;20935;42.660;23.342;2024-01-30T09:58:54;5.30;;;4.67;;
8048;SDS011;20935;42.660;23.342;2024-01-30T10:01:41;5.10;;;4.50;;
8048;SDS011;20935;42.660;23.342;2024-01-30T10:04:30;7.33;;;5.43;;
8048;SDS011;20935;42.660;23.342;2024-01-30T10:07:18;6.67;;;4.67;;
8048;SDS011;20935;42.660;23.342;2024-01-30T10:10:05;4.70;;;4.30;;
8048;SDS011;20935;42.660;23.342;2024-01-30T10:12:57;8.37;;;4.70;;
8048;SDS011;20935;42.660;23.342;2024-01-30T10:15:42;5.33;;;4.20;;
8048;SDS011;20935;42.660;23.342;2024-01-30T10:18:31;5.40;;;4.10;;
8048;SDS011;20935;42.660;23.342;2024-01-30T10:21:20;6.20;;;4.33;;
8048;SDS011;20935;42.660;23.342;2024-01-30T10:24:08;6.37;;;4.47;;
8048;SDS011;20935;42.660;23.342;2024-01-30T10:26:56;5.40;;;4.50;;
8048;SDS011;20935;42.660;23.342;2024-01-30T10:29:43;5.53;;;3.90;;
8048;SDS011;20935;42.660;23.342;2024-01-30T10:32:28;6.87;;;4.47;;
8048;SDS011;20935;42.660;23.342;2024-01-30T10:35:13;8.47;;;4.10;;
8048;SDS011;20935;42.660;23.342;2024-01-30T10:37:59;4.27;;;3.70;;
8048;SDS011;20935;42.660;23.342;2024-01-30T10:40:44;4.60;;;4.00;;
8048;SDS011;20935;42.660;23.342;2024-01-30T10:43:30;5.43;;;4.10;;
8048;SDS011;20935;42.660;23.342;2024-01-30T10:46:20;7.07;;;4.70;;
8048;SDS011;20935;42.660;23.342;2024-01-30T10:49:06;5.83;;;4.63;;
8048;SDS011;20935;42.660;23.342;2024-01-30T10:51:51;6.27;;;3.70;;
8048;SDS011;20935;42.660;23.342;2024-01-30T10:54:40;7.73;;;4.60;;
8048;SDS011;20935;42.660;23.342;2024-01-30T10:57:31;5.23;;;4.20;;
8048;SDS011;20935;42.660;23.342;2024-01-30T11:00:20;5.53;;;4.47;;
8048;SDS011;20935;42.660;23.342;2024-01-30T11:03:08;6.13;;;3.90;;
8048;SDS011;20935;42.660;23.342;2024-01-30T11:05:53;4.73;;;3.53;;
8048;SDS011;20935;42.660;23.342;2024-01-30T11:08:39;5.30;;;3.60;;
8048;SDS011;20935;42.660;23.342;2024-01-30T11:11:24;4.57;;;4.07;;
8048;SDS011;20935;42.660;23.342;2024-01-30T11:14:09;5.80;;;3.80;;
8048;SDS011;20935;42.660;23.342;2024-01-30T11:16:56;4.13;;;3.73;;
8048;SDS011;20935;42.660;23.342;2024-01-30T11:19:46;7.03;;;3.50;;
8048;SDS011;20935;42.660;23.342;2024-01-30T11:22:31;4.73;;;3.33;;
8048;SDS011;20935;42.660;23.342;2024-01-30T11:25:17;4.73;;;4.00;;
8048;SDS011;20935;42.660;23.342;2024-01-30T11:28:02;4.73;;;4.13;;
8048;SDS011;20935;42.660;23.342;2024-01-30T11:30:50;7.43;;;4.33;;
8048;SDS011;20935;42.660;23.342;2024-01-30T11:33:36;4.17;;;3.77;;
8048;SDS011;20935;42.660;23.342;2024-01-30T11:36:24;4.37;;;3.73;;
8048;SDS011;20935;42.660;23.342;2024-01-30T11:39:10;6.70;;;3.87;;
8048;SDS011;20935;42.660;23.342;2024-01-30T11:41:56;5.93;;;3.83;;
8048;SDS011;20935;42.660;23.342;2024-01-30T11:44:41;4.43;;;4.00;;
8048;SDS011;20935;42.660;23.342;2024-01-30T11:47:26;5.60;;;3.83;;
8048;SDS011;20935;42.660;23.342;2024-01-30T11:50:12;4.60;;;4.17;;
8048;SDS011;20935;42.660;23.342;2024-01-30T11:52:59;3.97;;;3.53;;
8048;SDS011;20935;42.660;23.342;2024-01-30T11:55:49;6.40;;;3.80;;
8048;SDS011;20935;42.660;23.342;2024-01-30T11:58:34;7.27;;;3.87;;
8048;SDS011;20935;42.660;23.342;2024-01-30T12:01:19;5.10;;;3.23;;
8048;SDS011;20935;42.660;23.342;2024-01-30T12:04:05;5.67;;;3.43;;
8048;SDS011;20935;42.660;23.342;2024-01-30T12:06:56;4.37;;;3.47;;
8048;SDS011;20935;42.660;23.342;2024-01-30T12:09:42;4.57;;;3.77;;
8048;SDS011;20935;42.660;23.342;2024-01-30T12:12:28;5.53;;;3.27;;
8048;SDS011;20935;42.660;23.342;2024-01-30T12:15:13;4.53;;;3.87;;
8048;SDS011;20935;42.660;23.342;2024-01-30T12:18:05;4.00;;;3.57;;
8048;SDS011;20935;42.660;23.342;2024-01-30T12:20:57;5.07;;;3.70;;
8048;SDS011;20935;42.660;23.342;2024-01-30T12:23:43;5.97;;;4.00;;
8048;SDS011;20935;42.660;23.342;2024-01-30T12:26:33;6.07;;;4.07;;
8048;SDS011;20935;42.660;23.342;2024-01-30T12:29:21;4.40;;;3.87;;
8048;SDS011;20935;42.660;23.342;2024-01-30T12:32:06;4.57;;;4.07;;
8048;SDS011;20935;42.660;23.342;2024-01-30T12:34:55;5.77;;;4.10;;
8048;SDS011;20935;42.660;23.342;2024-01-30T12:37:41;4.00;;;3.30;;
8048;SDS011;20935;42.660;23.342;2024-01-30T12:40:27;4.93;;;3.83;;
8048;SDS011;20935;42.660;23.342;2024-01-30T12:43:14;5.90;;;3.73;;
8048;SDS011;20935;42.660;23.342;2024-01-30T12:46:05;4.50;;;3.63;;
8048;SDS011;20935;42.660;23.342;2024-01-30T12:48:54;5.63;;;4.03;;
8048;SDS011;20935;42.660;23.342;2024-01-30T12:51:39;4.40;;;3.50;;
8048;SDS011;20935;42.660;23.342;2024-01-30T12:54:27;4.77;;;3.53;;
8048;SDS011;20935;42.660;23.342;2024-01-30T12:57:14;4.83;;;3.90;;
8048;SDS011;20935;42.660;23.342;2024-01-30T13:00:01;6.33;;;4.70;;
8048;SDS011;20935;42.660;23.342;2024-01-30T13:02:47;5.23;;;4.40;;
8048;SDS011;20935;42.660;23.342;2024-01-30T13:05:34;4.87;;;3.87;;
8048;SDS011;20935;42.660;23.342;2024-01-30T13:08:21;6.33;;;4.27;;
8048;SDS011;20935;42.660;23.342;2024-01-30T13:11:08;4.93;;;4.03;;
8048;SDS011;20935;42.660;23.342;2024-01-30T13:13:55;5.73;;;4.53;;
8048;SDS011;20935;42.660;23.342;2024-01-30T13:16:43;4.60;;;4.13;;
8048;SDS011;20935;42.660;23.342;2024-01-30T13:19:30;4.77;;;4.17;;
8048;SDS011;20935;42.660;23.342;2024-01-30T13:22:20;5.43;;;4.23;;
8048;SDS011;20935;42.660;23.342;2024-01-30T13:25:07;6.00;;;5.33;;
8048;SDS011;20935;42.660;23.342;2024-01-30T13:27:54;6.33;;;5.07;;
8048;SDS011;20935;42.660;23.342;2024-01-30T13:30:41;7.93;;;4.07;;
8048;SDS011;20935;42.660;23.342;2024-01-30T13:33:29;5.80;;;4.40;;
8048;SDS011;20935;42.660;23.342;2024-01-30T13:36:16;5.10;;;4.47;;
8048;SDS011;20935;42.660;23.342;2024-01-30T13:39:03;5.00;;;4.00;;
8048;SDS011;20935;42.660;23.342;2024-01-30T13:41:52;6.47;;;4.30;;
8048;SDS011;20935;42.660;23.342;2024-01-30T13:44:39;7.27;;;5.27;;
8048;SDS011;20935;42.660;23.342;2024-01-30T13:47:28;5.63;;;4.40;;
8048;SDS011;20935;42.660;23.342;2024-01-30T13:50:16;5.20;;;4.60;;
8048;SDS011;20935;42.660;23.342;2024-01-30T13:53:06;7.73;;;4.73;;
8048;SDS011;20935;42.660;23.342;2024-01-30T13:55:53;5.33;;;4.00;;
8048;SDS011;20935;42.660;23.342;2024-01-30T13:58:40;5.33;;;4.47;;
8048;SDS011;20935;42.660;23.342;2024-01-30T14:01:30;5.70;;;4.73;;
8048;SDS011;20935;42.660;23.342;2024-01-30T14:04:17;6.23;;;4.77;;
8048;SDS011;20935;42.660;23.342;2024-01-30T14:07:05;7.40;;;5.23;;
8048;SDS011;20935;42.660;23.342;2024-01-30T14:09:52;4.83;;;4.23;;
8048;SDS011;20935;42.660;23.342;2024-01-30T14:12:42;5.30;;;4.80;;
8048;SDS011;20935;42.660;23.342;2024-01-30T14:15:30;6.13;;;5.40;;
8048;SDS011;20935;42.660;23.342;2024-01-30T14:18:17;4.97;;;4.40;;
8048;SDS011;20935;42.660;23.342;2024-01-30T14:21:03;4.97;;;4.00;;
8048;SDS011;20935;42.660;23.342;2024-01-30T14:23:53;8.30;;;5.03;;
8048;SDS011;20935;42.660;23.342;2024-01-30T14:26:40;5.43;;;4.60;;
8048;SDS011;20935;42.660;23.342;2024-01-30T14:29:27;5.73;;;4.53;;
8048;SDS011;20935;42.660;23.342;2024-01-30T14:32:16;8.67;;;5.23;;
8048;SDS011;20935;42.660;23.342;2024-01-30T14:35:04;5.13;;;4.63;;
8048;SDS011;20935;42.660;23.342;2024-01-30T14:37:51;8.53;;;5.10;;
8048;SDS011;20935;42.660;23.342;2024-01-30T14:40:40;6.43;;;5.30;;
8048;SDS011;20935;42.660;23.342;2024-01-30T14:43:29;8.13;;;5.63;;
8048;SDS011;20935;42.660;23.342;2024-01-30T14:46:16;6.17;;;5.50;;
8048;SDS011;20935;42.660;23.342;2024-01-30T14:49:06;7.50;;;4.70;;
8048;SDS011;20935;42.660;23.342;2024-01-30T14:51:55;6.03;;;4.63;;
8048;SDS011;20935;42.660;23.342;2024-01-30T14:54:43;11.37;;;5.73;;
8048;SDS011;20935;42.660;23.342;2024-01-30T14:57:32;9.03;;;6.10;;
8048;SDS011;20935;42.660;23.342;2024-01-30T15:00:20;9.80;;;6.73;;
8048;SDS011;20935;42.660;23.342;2024-01-30T15:03:10;12.23;;;5.50;;
8048;SDS011;20935;42.660;23.342;2024-01-30T15:05:57;8.23;;;6.00;;
8048;SDS011;20935;42.660;23.342;2024-01-30T15:08:43;8.50;;;6.33;;
8048;SDS011;20935;42.660;23.342;2024-01-30T15:11:30;6.43;;;5.63;;
8048;SDS011;20935;42.660;23.342;2024-01-30T15:14:20;9.57;;;6.70;;
8048;SDS011;20935;42.660;23.342;2024-01-30T15:17:06;7.40;;;5.30;;
8048;SDS011;20935;42.660;23.342;2024-01-30T15:19:53;12.03;;;6.20;;
8048;SDS011;20935;42.660;23.342;2024-01-30T15:22:40;11.03;;;5.70;;
8048;SDS011;20935;42.660;23.342;2024-01-30T15:25:30;7.47;;;6.10;;
8048;SDS011;20935;42.660;23.342;2024-01-30T15:28:17;6.60;;;4.90;;
8048;SDS011;20935;42.660;23.342;2024-01-30T15:31:06;8.70;;;5.50;;
8048;SDS011;20935;42.660;23.342;2024-01-30T15:33:56;7.87;;;5.07;;
8048;SDS011;20935;42.660;23.342;2024-01-30T15:36:43;9.63;;;5.97;;
8048;SDS011;20935;42.660;23.342;2024-01-30T15:39:33;7.00;;;6.10;;
8048;SDS011;20935;42.660;23.342;2024-01-30T15:42:20;6.90;;;5.87;;
8048;SDS011;20935;42.660;23.342;2024-01-30T15:45:07;8.90;;;5.67;;
8048;SDS011;20935;42.660;23.342;2024-01-30T15:47:55;10.33;;;6.77;;
8048;SDS011;20935;42.660;23.342;2024-01-30T15:50:43;6.77;;;5.27;;
8048;SDS011;20935;42.660;23.342;2024-01-30T15:53:30;11.20;;;6.43;;
8048;SDS011;20935;42.660;23.342;2024-01-30T15:56:20;7.73;;;6.37;;
8048;SDS011;20935;42.660;23.342;2024-01-30T15:59:07;8.67;;;6.80;;
8048;SDS011;20935;42.660;23.342;2024-01-30T16:01:54;9.03;;;5.90;;
8048;SDS011;20935;42.660;23.342;2024-01-30T16:04:42;7.77;;;6.53;;
8048;SDS011;20935;42.660;23.342;2024-01-30T16:07:29;8.40;;;6.20;;
8048;SDS011;20935;42.660;23.342;2024-01-30T16:10:16;11.10;;;7.27;;
8048;SDS011;20935;42.660;23.342;2024-01-30T16:13:03;10.70;;;6.67;;
8048;SDS011;20935;42.660;23.342;2024-01-30T16:15:50;9.17;;;6.73;;
8048;SDS011;20935;42.660;23.342;2024-01-30T16:18:37;10.17;;;6.87;;
8048;SDS011;20935;42.660;23.342;2024-01-30T16:21:25;9.17;;;7.10;;
8048;SDS011;20935;42.660;23.342;2024-01-30T16:24:12;12.17;;;8.10;;
8048;SDS011;20935;42.660;23.342;2024-01-30T16:26:59;9.70;;;8.13;;
8048;SDS011;20935;42.660;23.342;2024-01-30T16:29:46;19.07;;;14.23;;
8048;SDS011;20935;42.660;23.342;2024-01-30T16:32:33;10.53;;;8.03;;
8048;SDS011;20935;42.660;23.342;2024-01-30T16:35:19;11.77;;;8.33;;
8048;SDS011;20935;42.660;23.342;2024-01-30T16:38:08;9.67;;;7.47;;
8048;SDS011;20935;42.660;23.342;2024-01-30T16:40:54;10.37;;;8.53;;
8048;SDS011;20935;42.660;23.342;2024-01-30T16:43:41;13.33;;;7.67;;
8048;SDS011;20935;42.660;23.342;2024-01-30T16:46:28;16.10;;;8.27;;